Time,TemperatureF,DewpointF,PressureIn,WindDirection,WindDirectionDegrees,WindSpeedMPH,WindSpeedGustMPH,Humidity,HourlyPrecipIn,Conditions,Clouds,dailyrainin,SoftwareType,DateUTC
2013-08-31 00:24:00,73.0,72.0,29.99,West,273,0.0,-999.0,96,-99.99,,,-99.99,,2013-08-31 04:24:00,
2013-08-31 00:54:00,72.0,71.0,29.99,West,273,0.0,-999.0,96,-99.99,,,-99.99,,2013-08-31 04:54:00,
2013-08-31 01:23:00,72.0,71.0,29.99,West,273,0.0,-999.0,96,-99.99,,,-99.99,,2013-08-31 05:23:00,
2013-08-31 01:53:00,72.0,71.0,29.98,West,273,0.0,-999.0,96,-99.99,,,-99.99,,2013-08-31 05:53:00,
2013-08-31 02:22:00,72.0,71.0,29.98,West,273,0.0,-999.0,96,-99.99,,,-99.99,,2013-08-31 06:22:00,
2013-08-31 02:52:00,72.0,71.0,29.97,West,273,0.0,-999.0,96,-99.99,,,-99.99,,2013-08-31 06:52:00,
2013-08-31 03:12:00,72.0,71.0,29.97,West,273,0.0,-999.0,97,-99.99,,,-99.99,,2013-08-31 07:12:00,
2013-08-31 03:22:00,72.0,71.0,29.97,West,273,0.0,-999.0,97,-99.99,,,-99.99,,2013-08-31 07:22:00,
2013-08-31 03:52:00,71.0,70.0,29.97,West,273,0.0,-999.0,97,-99.99,,,-99.99,,2013-08-31 07:52:00,
2013-08-31 04:22:00,70.0,69.0,29.96,West,273,0.0,-999.0,98,-99.99,,,-99.99,,2013-08-31 08:22:00,
2013-08-31 04:52:00,70.0,69.0,29.96,West,273,0.0,-999.0,98,-99.99,,,-99.99,,2013-08-31 08:52:00,
2013-08-31 05:23:00,70.0,69.0,29.96,West,273,0.0,-999.0,97,-99.99,,,-99.99,,2013-08-31 09:23:00,
2013-08-31 05:53:00,70.0,69.0,29.96,West,273,0.0,-999.0,98,-99.99,,,-99.99,,2013-08-31 09:53:00,
2013-08-31 06:23:00,70.0,69.0,29.96,West,273,0.0,-999.0,98,-99.99,,,-99.99,,2013-08-31 10:23:00,
2013-08-31 06:53:00,70.0,69.0,29.97,West,273,0.0,-999.0,98,-99.99,,,-99.99,,2013-08-31 10:53:00,
2013-08-31 07:22:00,70.0,69.0,29.97,West,273,0.0,-999.0,98,-99.99,,,-99.99,,2013-08-31 11:22:00,
2013-08-31 07:52:00,69.0,68.0,29.97,West,273,0.0,-999.0,98,-99.99,,,-99.99,,2013-08-31 11:52:00,
2013-08-31 08:22:00,70.0,69.0,29.98,West,273,0.0,-999.0,98,-99.99,,,-99.99,,2013-08-31 12:22:00,
2013-08-31 08:52:00,70.0,69.0,29.98,West,273,0.0,-999.0,98,-99.99,,,-99.99,,2013-08-31 12:52:00,
2013-08-31 09:22:00,72.0,71.0,29.99,West,273,0.0,-999.0,97,-99.99,,,-99.99,,2013-08-31 13:22:00,
2013-08-31 09:52:00,75.0,73.0,29.98,West,273,0.0,-999.0,92,-99.99,,,-99.99,,2013-08-31 13:52:00,
2013-08-31 10:22:00,78.0,74.0,29.98,WSW,250,0.0,-999.0,87,-99.99,,,-99.99,,2013-08-31 14:22:00,
2013-08-31 10:52:00,81.0,73.0,29.98,South,180,1.0,-999.0,78,-99.99,,,-99.99,,2013-08-31 14:52:00,
2013-08-31 11:23:00,82.0,74.0,29.98,WNW,300,1.0,-999.0,78,-99.99,,,-99.99,,2013-08-31 15:23:00,
2013-08-31 11:55:00,83.0,75.0,29.98,WSW,253,0.0,-999.0,76,-99.99,,,-99.99,,2013-08-31 15:55:00,
2013-08-31 12:25:00,84.0,74.0,29.97,SW,221,1.0,-999.0,73,-99.99,,,-99.99,,2013-08-31 16:25:00,
2013-08-31 12:53:00,85.0,75.0,29.96,West,261,1.0,-999.0,71,-99.99,,,-99.99,,2013-08-31 16:53:00,
2013-08-31 13:23:00,85.0,74.0,29.95,North,5,1.0,-999.0,69,-99.99,,,-99.99,,2013-08-31 17:23:00,
2013-08-31 13:53:00,84.0,73.0,29.94,West,273,1.0,-999.0,70,-99.99,,,-99.99,,2013-08-31 17:53:00,
2013-08-31 15:22:00,71.0,70.0,29.94,WNW,285,0.0,-999.0,96,-99.99,,,-99.99,,2013-08-31 19:22:00,
2013-08-31 15:52:00,71.0,70.0,29.93,West,268,0.0,-999.0,98,-99.99,,,-99.99,,2013-08-31 19:52:00,
2013-08-31 16:22:00,72.0,71.0,29.91,West,273,0.0,-999.0,98,-99.99,,,-99.99,,2013-08-31 20:22:00,
2013-08-31 16:53:00,73.0,72.0,29.91,West,273,0.0,-999.0,97,-99.99,,,-99.99,,2013-08-31 20:53:00,
2013-08-31 17:22:00,73.0,72.0,29.93,West,281,0.0,-999.0,97,-99.99,,,-99.99,,2013-08-31 21:22:00,
2013-08-31 17:54:00,73.0,72.0,29.91,West,281,0.0,-999.0,98,-99.99,,,-99.99,,2013-08-31 21:54:00,
2013-08-31 18:24:00,74.0,73.0,29.91,West,281,0.0,-999.0,98,-99.99,,,-99.99,,2013-08-31 22:24:00,
2013-08-31 18:53:00,73.0,71.0,29.91,WSW,252,0.0,-999.0,95,-99.99,,,-99.99,,2013-08-31 22:53:00,
2013-08-31 19:23:00,73.0,72.0,29.90,WSW,252,0.0,-999.0,96,-99.99,,,-99.99,,2013-08-31 23:23:00,
2013-08-31 19:52:00,73.0,72.0,29.91,West,281,0.0,-999.0,96,-99.99,,,-99.99,,2013-08-31 23:52:00,
2013-08-31 20:22:00,72.0,71.0,29.92,West,281,0.0,-999.0,97,-99.99,,,-99.99,,2013-09-01 00:22:00,
2013-08-31 20:52:00,72.0,71.0,29.95,West,281,0.0,-999.0,98,-99.99,,,-99.99,,2013-09-01 00:52:00,
2013-08-31 21:22:00,71.0,70.0,29.96,West,281,0.0,-999.0,98,-99.99,,,-99.99,,2013-09-01 01:22:00,
2013-08-31 21:52:00,71.0,70.0,29.96,West,281,0.0,-999.0,98,-99.99,,,-99.99,,2013-09-01 01:52:00,
2013-08-31 22:23:00,70.0,69.0,29.96,West,281,0.0,-999.0,98,-99.99,,,-99.99,,2013-09-01 02:23:00,
2013-08-31 22:53:00,70.0,70.0,29.96,West,281,0.0,-999.0,99,-99.99,,,-99.99,,2013-09-01 02:53:00,
2013-08-31 23:23:00,70.0,69.0,29.95,West,281,0.0,-999.0,98,-99.99,,,-99.99,,2013-09-01 03:23:00,
2013-08-31 23:54:00,69.0,69.0,29.95,West,281,0.0,-999.0,99,-99.99,,,-99.99,,2013-09-01 03:54:00,